createdAt,value
2018-07-04T00:00:02.612Z,53
2018-07-04T00:00:15.049Z,53
2018-07-04T00:00:27.502Z,53
2018-07-04T00:00:39.908Z,53
2018-07-04T00:00:52.298Z,53
2018-07-04T00:01:04.753Z,53
2018-07-04T00:01:17.288Z,53
2018-07-04T00:01:29.807Z,53
2018-07-04T00:01:42.193Z,53
2018-07-04T00:01:54.585Z,53
2018-07-04T00:02:06.981Z,53
2018-07-04T00:02:19.391Z,53
2018-07-04T00:02:31.787Z,53
2018-07-04T00:02:44.204Z,53
2018-07-04T00:02:56.625Z,53
2018-07-04T00:03:09.039Z,53
2018-07-04T00:03:21.423Z,53
2018-07-04T00:03:33.815Z,53
2018-07-04T00:03:46.237Z,53
2018-07-04T00:03:58.640Z,53
2018-07-04T00:04:11.085Z,53
2018-07-04T00:04:23.472Z,53
2018-07-04T00:04:35.875Z,53
2018-07-04T00:04:48.267Z,53
2018-07-04T00:05:00.661Z,53
2018-07-04T00:05:13.075Z,53
2018-07-04T00:05:25.561Z,53
2018-07-04T00:05:37.972Z,53
2018-07-04T00:05:50.377Z,53
2018-07-04T00:06:02.813Z,53
2018-07-04T00:06:15.216Z,53
2018-07-04T00:06:27.615Z,53
2018-07-04T00:06:40.001Z,53
2018-07-04T00:06:52.410Z,53
2018-07-04T00:07:04.973Z,53
2018-07-04T00:07:17.424Z,53
2018-07-04T00:07:29.822Z,53
2018-07-04T00:07:42.226Z,53
2018-07-04T00:07:54.618Z,53
2018-07-04T00:08:07.083Z,53
2018-07-04T00:08:19.489Z,53
2018-07-04T00:08:31.884Z,53
2018-07-04T00:08:44.300Z,53
2018-07-04T00:08:56.894Z,53
2018-07-04T00:09:09.298Z,53
2018-07-04T00:09:21.697Z,53
2018-07-04T00:09:34.089Z,53
2018-07-04T00:09:46.492Z,53
2018-07-04T00:09:58.892Z,53
2018-07-04T00:10:11.311Z,54
2018-07-04T00:10:23.710Z,54
2018-07-04T00:10:36.139Z,54
2018-07-04T00:10:48.543Z,54
2018-07-04T00:11:00.943Z,53
2018-07-04T00:11:13.343Z,53
2018-07-04T00:11:25.739Z,53
2018-07-04T00:11:38.146Z,53
2018-07-04T00:11:50.544Z,53
2018-07-04T00:12:02.942Z,53
2018-07-04T00:12:15.341Z,53
2018-07-04T00:12:27.782Z,53
2018-07-04T00:12:40.180Z,53
2018-07-04T00:12:52.627Z,53
2018-07-04T00:13:05.038Z,53
2018-07-04T00:13:17.900Z,53
2018-07-04T00:13:30.310Z,53
2018-07-04T00:13:42.717Z,53
2018-07-04T00:13:55.144Z,53
2018-07-04T00:14:07.571Z,53
2018-07-04T00:14:19.977Z,53
2018-07-04T00:14:32.417Z,53
2018-07-04T00:14:44.804Z,53
2018-07-04T00:14:57.202Z,53
2018-07-04T00:15:09.651Z,53
2018-07-04T00:15:22.057Z,54
2018-07-04T00:15:34.463Z,54
2018-07-04T00:15:46.874Z,54
2018-07-04T00:15:59.269Z,54
2018-07-04T00:16:11.666Z,54
2018-07-04T00:16:24.068Z,54
2018-07-04T00:16:36.468Z,54
2018-07-04T00:16:48.857Z,54
2018-07-04T00:17:01.254Z,54
2018-07-04T00:17:13.653Z,54
2018-07-04T00:17:26.037Z,54
2018-07-04T00:17:38.435Z,54
2018-07-04T00:17:50.823Z,53
2018-07-04T00:18:03.231Z,53
2018-07-04T00:18:15.637Z,53
2018-07-04T00:18:28.043Z,53
2018-07-04T00:18:40.439Z,53
2018-07-04T00:18:52.836Z,53
2018-07-04T00:19:05.301Z,53
2018-07-04T00:19:17.710Z,53
2018-07-04T00:19:30.119Z,53
2018-07-04T00:19:42.518Z,53
2018-07-04T00:19:54.997Z,53
2018-07-04T00:20:07.411Z,53
2018-07-04T00:20:19.823Z,53
2018-07-04T00:20:32.229Z,54
2018-07-04T00:20:44.640Z,54
2018-07-04T00:20:57.040Z,54
2018-07-04T00:21:09.446Z,54
2018-07-04T00:21:21.850Z,54
2018-07-04T00:21:34.268Z,54
2018-07-04T00:21:46.660Z,54
2018-07-04T00:21:59.051Z,54
2018-07-04T00:22:11.456Z,54
2018-07-04T00:22:23.852Z,54
2018-07-04T00:22:36.266Z,54
2018-07-04T00:22:48.655Z,54
2018-07-04T00:23:01.049Z,54
2018-07-04T00:23:13.441Z,54
2018-07-04T00:23:25.867Z,54
2018-07-04T00:23:38.281Z,54
2018-07-04T00:23:50.702Z,54
2018-07-04T00:24:03.118Z,54
2018-07-04T00:24:15.506Z,54
2018-07-04T00:24:27.938Z,54
2018-07-04T00:24:40.342Z,54
2018-07-04T00:24:52.754Z,54
2018-07-04T00:25:05.145Z,54
2018-07-04T00:25:17.542Z,54
2018-07-04T00:25:29.934Z,54
2018-07-04T00:25:42.952Z,53
2018-07-04T00:25:55.844Z,53
2018-07-04T00:26:08.239Z,53
2018-07-04T00:26:20.659Z,53
2018-07-04T00:26:33.112Z,53
2018-07-04T00:26:45.524Z,53
2018-07-04T00:26:57.931Z,53
2018-07-04T00:27:10.351Z,53
2018-07-04T00:27:22.759Z,54
2018-07-04T00:27:35.164Z,54
2018-07-04T00:27:47.566Z,54
2018-07-04T00:27:59.959Z,54
2018-07-04T00:28:12.354Z,54
2018-07-04T00:28:24.819Z,54
2018-07-04T00:28:37.229Z,54
2018-07-04T00:28:49.648Z,54
2018-07-04T00:29:02.060Z,53
2018-07-04T00:29:14.466Z,53
2018-07-04T00:29:26.873Z,53
2018-07-04T00:29:39.277Z,53
2018-07-04T00:29:51.690Z,53
2018-07-04T00:30:04.091Z,53
2018-07-04T00:30:16.486Z,53
2018-07-04T00:30:28.879Z,53
2018-07-04T00:30:41.290Z,53
2018-07-04T00:30:53.698Z,53
2018-07-04T00:31:06.098Z,53
2018-07-04T00:31:18.501Z,53
2018-07-04T00:31:30.997Z,53
2018-07-04T00:31:43.394Z,53
2018-07-04T00:31:55.781Z,53
2018-07-04T00:32:08.454Z,53
2018-07-04T00:32:20.854Z,53
2018-07-04T00:32:33.253Z,53
2018-07-04T00:32:45.656Z,53
2018-07-04T00:32:58.095Z,53
2018-07-04T00:33:10.514Z,53
2018-07-04T00:33:22.908Z,53
2018-07-04T00:33:35.339Z,53
2018-07-04T00:33:47.739Z,53
2018-07-04T00:34:00.132Z,53
2018-07-04T00:34:12.530Z,53
2018-07-04T00:34:24.929Z,53
2018-07-04T00:34:37.365Z,53
2018-07-04T00:34:49.773Z,53
2018-07-04T00:35:02.164Z,53
2018-07-04T00:35:14.555Z,53
2018-07-04T00:35:26.942Z,53
2018-07-04T00:35:39.357Z,53
2018-07-04T00:35:51.753Z,53
2018-07-04T00:36:04.165Z,53
2018-07-04T00:36:16.555Z,53
2018-07-04T00:36:28.956Z,53
2018-07-04T00:36:41.351Z,53
2018-07-04T00:36:53.799Z,53
2018-07-04T00:37:06.221Z,53
2018-07-04T00:37:18.610Z,53
2018-07-04T00:37:31.006Z,53
2018-07-04T00:37:43.405Z,53
2018-07-04T00:37:55.811Z,53
2018-07-04T00:38:08.207Z,53
2018-07-04T00:38:20.612Z,53
2018-07-04T00:38:33.025Z,53
2018-07-04T00:38:45.424Z,53
2018-07-04T00:38:57.844Z,53
2018-07-04T00:39:10.251Z,53
2018-07-04T00:39:22.667Z,53
2018-07-04T00:39:35.119Z,53
2018-07-04T00:39:47.515Z,53
2018-07-04T00:39:59.921Z,53
2018-07-04T00:40:12.314Z,53
2018-07-04T00:40:24.709Z,53
2018-07-04T00:40:37.101Z,53
2018-07-04T00:40:49.499Z,53
2018-07-04T00:41:01.897Z,53
2018-07-04T00:41:14.299Z,53
2018-07-04T00:41:26.709Z,53
2018-07-04T00:41:39.105Z,53
2018-07-04T00:41:51.532Z,53
2018-07-04T00:42:04.348Z,53
2018-07-04T00:42:16.751Z,53
2018-07-04T00:42:33.822Z,53
2018-07-04T00:42:44.992Z,53
2018-07-04T00:42:56.420Z,53
2018-07-04T00:43:07.097Z,53
2018-07-04T00:43:17.819Z,53
2018-07-04T00:43:28.447Z,53
2018-07-04T00:43:39.972Z,53
2018-07-04T00:43:51.814Z,53
2018-07-04T00:44:05.943Z,53
2018-07-04T00:44:22.452Z,53
2018-07-04T00:44:45.990Z,53
2018-07-04T00:45:22.916Z,53
2018-07-04T00:45:34.647Z,53
2018-07-04T00:45:45.318Z,53
2018-07-04T00:45:56.497Z,53
2018-07-04T00:46:07.115Z,53
2018-07-04T00:46:18.072Z,53
2018-07-04T00:46:30.272Z,53
2018-07-04T00:46:43.868Z,53
2018-07-04T00:47:00.431Z,53
2018-07-04T00:47:24.607Z,53
2018-07-04T00:47:35.275Z,53
2018-07-04T00:47:45.948Z,53
2018-07-04T00:47:56.601Z,53
2018-07-04T00:48:07.456Z,53
2018-07-04T00:48:19.618Z,53
2018-07-04T00:48:33.299Z,53
2018-07-04T00:48:50.050Z,53
2018-07-04T00:49:13.152Z,53
2018-07-04T00:49:48.944Z,53
2018-07-04T00:50:50.277Z,54
2018-07-04T00:52:00.542Z,54
2018-07-04T00:53:11.244Z,54
2018-07-04T00:53:22.265Z,54
2018-07-04T00:53:33.047Z,54
2018-07-04T00:53:43.560Z,54
2018-07-04T00:53:54.476Z,54
2018-07-04T00:54:06.301Z,54
2018-07-04T00:54:19.561Z,54
2018-07-04T00:54:36.007Z,54
2018-07-04T00:54:59.352Z,54
2018-07-04T00:55:36.421Z,54
2018-07-04T00:55:47.013Z,54
2018-07-04T00:55:57.413Z,54
2018-07-04T00:56:07.984Z,54
2018-07-04T00:56:19.205Z,54
2018-07-04T00:56:31.212Z,54
2018-07-04T00:56:44.809Z,54
2018-07-04T00:57:01.250Z,54
2018-07-04T00:57:24.081Z,54
2018-07-04T00:57:59.757Z,54
2018-07-04T00:59:01.176Z,54
2018-07-04T01:00:12.464Z,54
2018-07-04T01:00:23.438Z,54
2018-07-04T01:00:34.880Z,54
2018-07-04T01:00:45.422Z,54
2018-07-04T01:00:57.115Z,54
2018-07-04T01:01:07.659Z,54
2018-07-04T01:01:19.743Z,54
2018-07-04T01:01:30.587Z,54
2018-07-04T01:01:41.817Z,54
2018-07-04T01:01:52.540Z,54
2018-07-04T01:02:03.397Z,54
2018-07-04T01:02:15.121Z,54
2018-07-04T01:02:28.418Z,54
2018-07-04T01:02:44.865Z,54
2018-07-04T01:03:07.754Z,54
2018-07-04T01:03:43.406Z,54
2018-07-04T01:04:44.622Z,54
2018-07-04T01:05:54.749Z,54
2018-07-04T01:07:05.155Z,54
2018-07-04T01:08:15.235Z,54
2018-07-04T01:09:25.423Z,54
2018-07-04T01:10:35.532Z,54
2018-07-04T01:11:45.736Z,54
2018-07-04T01:12:55.927Z,54
2018-07-04T01:14:07.020Z,54
2018-07-04T01:14:17.715Z,54
2018-07-04T01:14:28.565Z,54
2018-07-04T01:14:39.095Z,54
2018-07-04T01:14:50.620Z,54
2018-07-04T01:15:02.360Z,54
2018-07-04T01:15:15.630Z,54
2018-07-04T01:15:32.988Z,54
2018-07-04T01:15:43.576Z,54
2018-07-04T01:15:54.781Z,54
2018-07-04T01:16:05.392Z,54
2018-07-04T01:16:16.464Z,54
2018-07-04T01:16:29.265Z,54
2018-07-04T01:16:40.560Z,54
2018-07-04T01:16:51.243Z,54
2018-07-04T01:17:01.974Z,54
2018-07-04T01:17:13.299Z,54
2018-07-04T01:17:25.104Z,54
2018-07-04T01:17:38.431Z,54
2018-07-04T01:17:55.804Z,54
2018-07-04T01:18:06.509Z,54
2018-07-04T01:18:18.086Z,54
2018-07-04T01:18:29.776Z,54
2018-07-04T01:18:41.170Z,54
2018-07-04T01:18:51.749Z,54
2018-07-04T01:19:02.734Z,54
2018-07-04T01:19:13.255Z,54
2018-07-04T01:19:24.275Z,54
2018-07-04T01:19:36.564Z,54
2018-07-04T01:19:46.969Z,54
2018-07-04T01:19:57.577Z,54
2018-07-04T01:20:08.124Z,54
2018-07-04T01:20:18.975Z,54
2018-07-04T01:20:30.586Z,54
2018-07-04T01:20:43.958Z,54
2018-07-04T01:21:00.437Z,54
2018-07-04T01:21:23.429Z,54
2018-07-04T01:21:59.094Z,54
2018-07-04T01:23:00.342Z,54
2018-07-04T01:24:10.428Z,54
2018-07-04T01:25:20.606Z,54
2018-07-04T01:26:30.717Z,55
2018-07-04T01:27:43.157Z,55
2018-07-04T01:27:55.364Z,55
2018-07-04T01:28:08.042Z,55
2018-07-04T01:28:20.878Z,55
2018-07-04T01:28:33.351Z,55
2018-07-04T01:28:46.472Z,55
2018-07-04T01:28:58.648Z,55
2018-07-04T01:29:11.141Z,55
2018-07-04T01:29:24.147Z,55
2018-07-04T01:29:36.420Z,55
2018-07-04T01:29:48.900Z,55
2018-07-04T01:30:01.518Z,55
2018-07-04T01:30:13.426Z,55
2018-07-04T01:30:25.766Z,55
2018-07-04T01:30:38.105Z,55
2018-07-04T01:30:50.787Z,55
2018-07-04T01:31:03.435Z,55
2018-07-04T01:31:15.633Z,55
2018-07-04T01:31:27.862Z,55
2018-07-04T01:31:39.549Z,55
2018-07-04T01:31:52.144Z,55
2018-07-04T01:32:03.492Z,55
2018-07-04T01:32:15.651Z,55
2018-07-04T01:32:27.199Z,55
2018-07-04T01:32:37.491Z,55
2018-07-04T01:32:48.044Z,55
2018-07-04T01:32:58.451Z,55
2018-07-04T01:33:09.301Z,55
2018-07-04T01:33:21.006Z,55
2018-07-04T01:33:34.227Z,55
2018-07-04T01:33:50.648Z,55
2018-07-04T01:34:14.981Z,55
2018-07-04T01:34:26.604Z,55
2018-07-04T01:34:38.408Z,55
2018-07-04T01:34:49.757Z,55
2018-07-04T01:35:02.343Z,55
2018-07-04T01:35:14.233Z,55
2018-07-04T01:35:27.509Z,55
2018-07-04T01:35:39.287Z,55
2018-07-04T01:35:50.090Z,55
2018-07-04T01:36:02.788Z,55
2018-07-04T01:36:14.866Z,55
2018-07-04T01:36:27.359Z,55
2018-07-04T01:36:40.077Z,55
2018-07-04T01:36:51.941Z,55
2018-07-04T01:37:04.157Z,55
2018-07-04T01:37:16.600Z,55
2018-07-04T01:37:28.821Z,55
2018-07-04T01:37:41.012Z,55
2018-07-04T01:37:52.549Z,55
2018-07-04T01:38:05.151Z,55
2018-07-04T01:38:17.455Z,55
2018-07-04T01:38:29.841Z,55
2018-07-04T01:38:41.956Z,55
2018-07-04T01:38:52.919Z,55
2018-07-04T01:39:05.141Z,55
2018-07-04T01:39:17.462Z,55
2018-07-04T01:39:29.871Z,55
2018-07-04T01:39:41.869Z,55
2018-07-04T01:39:53.624Z,55
2018-07-04T01:40:06.373Z,55
2018-07-04T01:40:18.643Z,55
2018-07-04T01:40:31.325Z,55
2018-07-04T01:40:42.960Z,55
2018-07-04T01:40:54.202Z,55
2018-07-04T01:41:06.851Z,55
2018-07-04T01:41:18.809Z,55
2018-07-04T01:41:31.435Z,55
2018-07-04T01:41:43.784Z,55
2018-07-04T01:41:55.928Z,55
2018-07-04T01:42:08.736Z,55
2018-07-04T01:42:20.370Z,55
2018-07-04T01:42:32.816Z,55
2018-07-04T01:42:44.627Z,55
2018-07-04T01:42:56.925Z,55
2018-07-04T01:43:08.296Z,55
2018-07-04T01:43:20.364Z,55
2018-07-04T01:43:32.443Z,55
2018-07-04T01:43:44.562Z,55
2018-07-04T01:43:56.905Z,55
2018-07-04T01:44:08.280Z,56
2018-07-04T01:44:20.837Z,56
2018-07-04T01:44:32.742Z,56
2018-07-04T01:44:45.204Z,56
2018-07-04T01:44:57.053Z,56
2018-07-04T01:45:09.452Z,56
2018-07-04T01:45:21.731Z,56
2018-07-04T01:45:33.989Z,56
2018-07-04T01:45:45.993Z,56
2018-07-04T01:45:57.711Z,56
2018-07-04T01:46:09.312Z,56
2018-07-04T01:46:21.730Z,56
2018-07-04T01:46:33.846Z,56
2018-07-04T01:46:45.699Z,56
2018-07-04T01:46:58.007Z,56
2018-07-04T01:47:08.943Z,56
2018-07-04T01:47:21.765Z,56
2018-07-04T01:47:33.801Z,56
2018-07-04T01:47:46.580Z,56
2018-07-04T01:47:58.202Z,56
2018-07-04T01:48:09.381Z,56
2018-07-04T01:48:21.285Z,56
2018-07-04T01:48:32.877Z,56
2018-07-04T01:48:44.819Z,56
2018-07-04T01:48:56.920Z,56
2018-07-04T01:49:09.640Z,56
2018-07-04T01:49:22.400Z,56
2018-07-04T01:49:34.170Z,56
2018-07-04T01:49:46.480Z,56
2018-07-04T01:49:59.271Z,56
2018-07-04T01:50:11.142Z,56
2018-07-04T01:50:23.176Z,56
2018-07-04T01:50:35.232Z,56
2018-07-04T01:50:47.385Z,56
2018-07-04T01:50:59.475Z,57
2018-07-04T01:51:12.251Z,57
2018-07-04T01:51:23.978Z,57
2018-07-04T01:51:36.255Z,57
2018-07-04T01:51:48.554Z,57
2018-07-04T01:52:01.535Z,57
2018-07-04T01:52:13.865Z,57
2018-07-04T01:52:26.765Z,57
2018-07-04T01:52:38.480Z,57
2018-07-04T01:52:50.956Z,57
2018-07-04T01:53:03.220Z,57
2018-07-04T01:53:15.863Z,57
2018-07-04T01:53:27.753Z,57
2018-07-04T01:53:39.972Z,58
2018-07-04T01:53:52.594Z,58
2018-07-04T01:54:05.402Z,58
2018-07-04T01:54:17.726Z,58
2018-07-04T01:54:29.627Z,58
2018-07-04T01:54:41.899Z,58
2018-07-04T01:54:54.680Z,58
2018-07-04T01:55:06.787Z,58
2018-07-04T01:55:19.942Z,58
2018-07-04T01:55:32.675Z,58
2018-07-04T01:55:45.188Z,58
2018-07-04T01:55:57.483Z,58
2018-07-04T01:56:10.172Z,58
2018-07-04T01:56:22.423Z,58
2018-07-04T01:56:35.167Z,58
2018-07-04T01:56:46.713Z,58
2018-07-04T01:56:59.460Z,57
2018-07-04T01:57:11.341Z,57
2018-07-04T01:57:24.095Z,57
2018-07-04T01:57:35.563Z,57
2018-07-04T01:57:47.977Z,57
2018-07-04T01:58:00.299Z,57
2018-07-04T01:58:13.219Z,57
2018-07-04T01:58:25.101Z,57
2018-07-04T01:58:37.783Z,57
2018-07-04T01:58:50.091Z,57
2018-07-04T01:59:02.795Z,57
2018-07-04T01:59:14.675Z,57
2018-07-04T01:59:27.302Z,57
2018-07-04T01:59:39.126Z,57
2018-07-04T01:59:52.042Z,57
2018-07-04T02:00:04.243Z,57
2018-07-04T02:00:17.107Z,57
2018-07-04T02:00:29.417Z,57
2018-07-04T02:00:41.622Z,57
2018-07-04T02:00:53.862Z,57
2018-07-04T02:01:06.551Z,57
2018-07-04T02:01:18.800Z,57
2018-07-04T02:01:31.795Z,57
2018-07-04T02:01:44.562Z,57
2018-07-04T02:01:56.194Z,57
2018-07-04T02:02:08.917Z,57
2018-07-04T02:02:20.694Z,57
2018-07-04T02:02:33.789Z,57
2018-07-04T02:02:45.881Z,57
2018-07-04T02:02:58.253Z,56
2018-07-04T02:03:10.768Z,56
2018-07-04T02:03:22.987Z,56
2018-07-04T02:03:35.665Z,56
2018-07-04T02:03:48.480Z,57
2018-07-04T02:04:00.664Z,57
2018-07-04T02:04:13.314Z,57
2018-07-04T02:04:25.276Z,57
2018-07-04T02:04:37.913Z,56
2018-07-04T02:04:49.720Z,56
2018-07-04T02:05:02.146Z,56
2018-07-04T02:05:14.386Z,56
2018-07-04T02:05:26.922Z,57
2018-07-04T02:05:39.350Z,57
2018-07-04T02:05:51.354Z,57
2018-07-04T02:06:04.108Z,57
2018-07-04T02:06:15.759Z,57
2018-07-04T02:06:28.278Z,57
2018-07-04T02:06:40.552Z,57
2018-07-04T02:06:52.480Z,57
2018-07-04T02:07:04.510Z,57
2018-07-04T02:07:17.131Z,56
2018-07-04T02:07:29.236Z,56
2018-07-04T02:07:41.319Z,56
2018-07-04T02:07:53.168Z,56
2018-07-04T02:08:05.286Z,56
2018-07-04T02:08:17.622Z,56
2018-07-04T02:08:29.965Z,56
2018-07-04T02:08:42.165Z,56
2018-07-04T02:08:53.723Z,57
2018-07-04T02:09:06.311Z,57
2018-07-04T02:09:18.461Z,57
2018-07-04T02:09:30.857Z,57
2018-07-04T02:09:43.134Z,57
2018-07-04T02:09:55.269Z,57
2018-07-04T02:10:07.420Z,57
2018-07-04T02:10:19.466Z,57
2018-07-04T02:10:31.610Z,57
2018-07-04T02:10:43.791Z,56
2018-07-04T02:10:55.739Z,56
2018-07-04T02:11:08.354Z,56
2018-07-04T02:11:20.876Z,56
2018-07-04T02:11:32.561Z,57
2018-07-04T02:11:45.263Z,57
2018-07-04T02:11:57.123Z,57
2018-07-04T02:12:09.504Z,57
2018-07-04T02:12:22.360Z,56
2018-07-04T02:12:34.946Z,56
2018-07-04T02:12:46.865Z,56
2018-07-04T02:12:59.302Z,56
2018-07-04T02:13:11.660Z,56
2018-07-04T02:13:23.987Z,56
2018-07-04T02:13:36.582Z,56
2018-07-04T02:13:49.157Z,56
2018-07-04T02:14:01.987Z,57
2018-07-04T02:14:14.544Z,57
2018-07-04T02:14:26.905Z,57
2018-07-04T02:14:39.301Z,57
2018-07-04T02:14:52.276Z,56
2018-07-04T02:15:04.014Z,56
2018-07-04T02:15:17.334Z,56
2018-07-04T02:15:30.149Z,56
2018-07-04T02:15:42.843Z,56
2018-07-04T02:15:55.236Z,56
2018-07-04T02:16:07.390Z,56
2018-07-04T02:16:20.158Z,56
2018-07-04T02:16:33.147Z,56
2018-07-04T02:16:45.978Z,56
2018-07-04T02:16:58.496Z,56
2018-07-04T02:17:11.177Z,56
2018-07-04T02:17:23.673Z,56
2018-07-04T02:17:36.329Z,56
2018-07-04T02:17:48.829Z,56
2018-07-04T02:18:01.822Z,56
2018-07-04T02:18:14.410Z,57
2018-07-04T02:18:27.098Z,57
2018-07-04T02:18:39.535Z,57
2018-07-04T02:18:51.781Z,57
2018-07-04T02:19:04.305Z,57
2018-07-04T02:19:16.600Z,57
2018-07-04T02:19:29.392Z,57
2018-07-04T02:19:41.391Z,57
2018-07-04T02:19:54.148Z,57
2018-07-04T02:20:06.780Z,57
2018-07-04T02:20:19.546Z,57
2018-07-04T02:20:31.885Z,57
2018-07-04T02:20:44.515Z,57
2018-07-04T02:20:56.860Z,57
2018-07-04T02:21:10.267Z,57
2018-07-04T02:21:22.727Z,57
2018-07-04T02:21:35.306Z,57
2018-07-04T02:21:47.296Z,57
2018-07-04T02:22:00.092Z,57
2018-07-04T02:22:12.573Z,57
2018-07-04T02:22:25.353Z,57
2018-07-04T02:22:38.471Z,57
2018-07-04T02:22:51.361Z,57
2018-07-04T02:23:03.813Z,57
2018-07-04T02:23:15.412Z,57
2018-07-04T02:23:28.084Z,57
2018-07-04T02:23:40.391Z,57
2018-07-04T02:23:52.931Z,57
2018-07-04T02:24:05.637Z,57
2018-07-04T02:24:18.590Z,57
2018-07-04T02:24:31.715Z,57
2018-07-04T02:24:44.082Z,57
2018-07-04T02:24:56.954Z,57
2018-07-04T02:25:09.100Z,57
2018-07-04T02:25:21.943Z,57
2018-07-04T02:25:34.603Z,57
2018-07-04T02:25:47.567Z,57
2018-07-04T02:26:00.342Z,57
2018-07-04T02:26:12.294Z,57
2018-07-04T02:26:24.919Z,57
2018-07-04T02:26:37.339Z,57
2018-07-04T02:26:49.639Z,58
2018-07-04T02:27:02.505Z,58
2018-07-04T02:27:14.607Z,58
2018-07-04T02:27:27.108Z,58
2018-07-04T02:27:38.340Z,58
2018-07-04T02:27:49.005Z,58
2018-07-04T02:27:59.461Z,58
2018-07-04T02:28:09.890Z,58
2018-07-04T02:28:20.714Z,58
2018-07-04T02:28:32.423Z,58
2018-07-04T02:28:45.605Z,58
2018-07-04T02:29:02.138Z,58
2018-07-04T02:29:24.984Z,58
2018-07-04T02:30:00.579Z,58
2018-07-04T02:31:01.824Z,58
2018-07-04T02:32:12.063Z,58
2018-07-04T02:33:22.817Z,58
2018-07-04T02:34:32.815Z,59
2018-07-04T02:35:42.931Z,59
2018-07-04T02:36:52.948Z,59
2018-07-04T02:38:03.585Z,59
2018-07-04T02:38:14.075Z,59
2018-07-04T02:38:24.581Z,59
2018-07-04T02:38:35.162Z,59
2018-07-04T02:38:46.043Z,59
2018-07-04T02:38:57.626Z,59
2018-07-04T02:39:10.854Z,59
2018-07-04T02:39:27.268Z,59
2018-07-04T02:39:50.091Z,59
2018-07-04T02:40:25.788Z,59
2018-07-04T02:41:27.844Z,59
2018-07-04T02:41:38.399Z,59
2018-07-04T02:41:48.806Z,59
2018-07-04T02:41:59.272Z,59
2018-07-04T02:42:10.445Z,60
2018-07-04T02:42:22.021Z,60
2018-07-04T02:42:35.612Z,60
2018-07-04T02:42:52.090Z,60
2018-07-04T02:43:14.924Z,60
2018-07-04T02:43:50.947Z,60
2018-07-04T02:44:52.579Z,60
2018-07-04T02:45:05.569Z,60
2018-07-04T02:45:16.661Z,60
2018-07-04T02:45:27.135Z,60
2018-07-04T02:45:38.453Z,60
2018-07-04T02:45:49.036Z,60
2018-07-04T02:46:00.239Z,60
2018-07-04T02:46:10.852Z,60
2018-07-04T02:46:21.663Z,60
2018-07-04T02:46:32.447Z,60
2018-07-04T02:46:44.102Z,60
2018-07-04T02:46:54.648Z,60
2018-07-04T02:47:05.015Z,60
2018-07-04T02:47:17.180Z,60
2018-07-04T02:47:27.526Z,60
2018-07-04T02:47:39.233Z,60
2018-07-04T02:47:50.652Z,60
2018-07-04T02:48:01.872Z,60
2018-07-04T02:48:13.496Z,61
2018-07-04T02:48:24.725Z,61
2018-07-04T02:48:36.304Z,61
2018-07-04T02:48:47.583Z,61
2018-07-04T02:48:58.421Z,61
2018-07-04T02:49:09.569Z,61
2018-07-04T02:49:20.975Z,61
2018-07-04T02:49:32.630Z,61
2018-07-04T02:49:46.529Z,61
2018-07-04T02:49:57.006Z,60
2018-07-04T02:50:08.567Z,60
2018-07-04T02:50:19.870Z,60
2018-07-04T02:50:32.080Z,60
2018-07-04T02:50:44.754Z,60
2018-07-04T02:50:55.715Z,60
2018-07-04T02:51:08.674Z,60
2018-07-04T02:51:21.027Z,60
2018-07-04T02:51:33.920Z,60
2018-07-04T02:51:45.884Z,61
2018-07-04T02:51:58.063Z,61
2018-07-04T02:52:08.542Z,61
2018-07-04T02:52:18.997Z,61
2018-07-04T02:52:29.527Z,61
2018-07-04T02:52:40.353Z,61
2018-07-04T02:52:52.098Z,61
2018-07-04T02:53:05.703Z,61
2018-07-04T02:53:22.123Z,61
2018-07-04T02:53:45.382Z,61
2018-07-04T02:54:21.410Z,61
2018-07-04T02:55:23.286Z,60
2018-07-04T02:56:33.765Z,60
2018-07-04T02:57:46.083Z,60
2018-07-04T02:57:58.273Z,60
2018-07-04T02:58:09.890Z,60
2018-07-04T02:58:22.759Z,60
2018-07-04T02:58:35.139Z,61
2018-07-04T02:58:46.861Z,61
2018-07-04T02:58:59.522Z,61
2018-07-04T02:59:11.780Z,61
2018-07-04T02:59:22.629Z,60
2018-07-04T02:59:35.605Z,60
2018-07-04T02:59:48.242Z,60
2018-07-04T03:00:01.400Z,60
2018-07-04T03:00:14.001Z,61
2018-07-04T03:00:26.722Z,61
2018-07-04T03:00:39.506Z,61
2018-07-04T03:00:52.121Z,61
2018-07-04T03:01:04.734Z,61
2018-07-04T03:01:17.237Z,61
2018-07-04T03:01:30.023Z,61
2018-07-04T03:01:42.120Z,61
2018-07-04T03:01:55.063Z,61
2018-07-04T03:02:07.601Z,61
2018-07-04T03:02:20.580Z,61
2018-07-04T03:02:31.310Z,61
2018-07-04T03:02:41.864Z,61
2018-07-04T03:02:52.492Z,61
2018-07-04T03:03:03.445Z,61
2018-07-04T03:03:15.109Z,61
2018-07-04T03:03:28.319Z,61
2018-07-04T03:03:44.775Z,61
2018-07-04T03:04:07.612Z,61
2018-07-04T03:04:45.172Z,61
2018-07-04T03:04:57.165Z,61
2018-07-04T03:05:09.360Z,61
2018-07-04T03:05:21.575Z,62
2018-07-04T03:05:33.588Z,62
2018-07-04T03:05:45.705Z,62
2018-07-04T03:05:58.001Z,62
2018-07-04T03:06:09.918Z,62
2018-07-04T03:06:22.217Z,62
2018-07-04T03:06:34.360Z,62
2018-07-04T03:06:46.669Z,62
2018-07-04T03:06:59.051Z,62
2018-07-04T03:07:11.498Z,62
2018-07-04T03:07:24.172Z,62
2018-07-04T03:07:35.472Z,62
2018-07-04T03:07:47.536Z,62
2018-07-04T03:07:59.495Z,61
2018-07-04T03:08:11.925Z,61
2018-07-04T03:08:23.945Z,61
2018-07-04T03:08:35.323Z,61
2018-07-04T03:08:47.958Z,62
2018-07-04T03:09:00.507Z,62
2018-07-04T03:09:13.595Z,62
2018-07-04T03:09:25.584Z,62
2018-07-04T03:09:38.405Z,62
2018-07-04T03:09:50.415Z,62
2018-07-04T03:10:02.955Z,62
2018-07-04T03:10:15.835Z,62
2018-07-04T03:10:28.461Z,62
2018-07-04T03:10:40.293Z,62
2018-07-04T03:10:52.721Z,62
2018-07-04T03:11:04.939Z,62
2018-07-04T03:11:16.451Z,62
2018-07-04T03:11:28.544Z,62
2018-07-04T03:11:40.071Z,62
2018-07-04T03:11:52.570Z,62
2018-07-04T03:12:04.684Z,64
2018-07-04T03:12:17.089Z,64
2018-07-04T03:12:29.371Z,64
2018-07-04T03:12:39.740Z,64
2018-07-04T03:12:50.273Z,64
2018-07-04T03:13:00.678Z,64
2018-07-04T03:13:11.637Z,64
2018-07-04T03:13:23.400Z,64
2018-07-04T03:13:36.735Z,64
2018-07-04T03:13:53.206Z,64
2018-07-04T03:14:17.694Z,64
2018-07-04T03:14:30.182Z,64
2018-07-04T03:14:41.003Z,64
2018-07-04T03:14:53.804Z,64
2018-07-04T03:15:05.161Z,64
2018-07-04T03:15:17.240Z,64
2018-07-04T03:15:29.668Z,64
2018-07-04T03:15:40.914Z,64
2018-07-04T03:15:51.987Z,64
2018-07-04T03:16:03.303Z,64
2018-07-04T03:16:14.199Z,64
2018-07-04T03:16:25.942Z,64
2018-07-04T03:16:39.171Z,64
2018-07-04T03:16:55.771Z,64
2018-07-04T03:17:18.752Z,64
2018-07-04T03:17:54.491Z,64
2018-07-04T03:18:55.946Z,64
2018-07-04T03:20:06.795Z,64
2018-07-04T03:20:17.383Z,64
2018-07-04T03:20:27.892Z,64
2018-07-04T03:20:39.037Z,64
2018-07-04T03:20:50.020Z,64
2018-07-04T03:21:01.774Z,64
2018-07-04T03:21:14.985Z,64
2018-07-04T03:21:31.481Z,64
2018-07-04T03:21:54.430Z,64
2018-07-04T03:22:30.187Z,64
2018-07-04T03:23:31.547Z,64
2018-07-04T03:24:42.976Z,64
2018-07-04T03:24:53.714Z,65
2018-07-04T03:25:04.562Z,65
2018-07-04T03:25:15.580Z,65
2018-07-04T03:25:26.942Z,65
2018-07-04T03:25:38.705Z,65
2018-07-04T03:25:52.119Z,64
2018-07-04T03:26:09.002Z,64
2018-07-04T03:26:31.937Z,64
2018-07-04T03:27:08.397Z,64
2018-07-04T03:27:19.128Z,64
2018-07-04T03:27:30.432Z,65
2018-07-04T03:27:41.114Z,65
2018-07-04T03:27:52.935Z,65
2018-07-04T03:28:03.576Z,65
2018-07-04T03:28:14.146Z,65
2018-07-04T03:28:24.739Z,65
2018-07-04T03:28:35.713Z,65
2018-07-04T03:28:47.372Z,65
2018-07-04T03:29:00.671Z,65
2018-07-04T03:29:17.188Z,65
2018-07-04T03:29:41.078Z,64
2018-07-04T03:29:51.664Z,64
2018-07-04T03:30:02.283Z,65
2018-07-04T03:30:12.933Z,65
2018-07-04T03:30:23.863Z,65
2018-07-04T03:30:36.254Z,65
2018-07-04T03:30:49.551Z,65
2018-07-04T03:31:06.142Z,64
2018-07-04T03:31:30.054Z,64
2018-07-04T03:31:40.612Z,64
2018-07-04T03:31:51.903Z,65
2018-07-04T03:32:03.143Z,65
2018-07-04T03:32:13.968Z,65
2018-07-04T03:32:24.601Z,65
2018-07-04T03:32:35.576Z,65
2018-07-04T03:32:47.228Z,65
2018-07-04T03:33:01.026Z,65
2018-07-04T03:33:17.826Z,65
2018-07-04T03:33:40.675Z,65
2018-07-04T03:34:16.396Z,65
2018-07-04T03:35:17.619Z,65
2018-07-04T03:36:27.768Z,66
2018-07-04T03:37:37.923Z,66
2018-07-04T03:38:47.987Z,66
2018-07-04T03:39:58.108Z,66
2018-07-04T03:41:08.257Z,67
2018-07-04T03:42:18.302Z,67
2018-07-04T03:43:28.432Z,66
2018-07-04T03:44:38.572Z,67
2018-07-04T03:45:48.788Z,67
2018-07-04T03:46:59.090Z,67